South Brunswick, NJ

3:47 PM EDT on March 27, 2015 (GMT -0400)
KNJPRINC7 | | Change Station
CLOSE
Current Station
Personal Weather Station
Location: Princeton Junction, NJ
Elevation: 102 ft
Nearby Weather Stations

Elev 102 ft 40.30 °N, 74.58 °W | Updated 9 minutes ago

Overcast
Overcast
45.3 °F
Feels Like 45 °F
N
0.0
Wind Variable Wind from NW
Gusts 3.0 mph

Today
High -- | Low -- °F
--% Chance of Precip.
Yesterday
High -- | Low -- °F
Precip. -- in
6:50 AM 7:17 PM
First Quarter, 55% visible
Pressure 29.74 in
Visibility 10.0 miles
Clouds Few 3500 ft
Mostly Cloudy 11000 ft
Windchill 45 °F
Dew Point 36 °F
Humidity 69%
Rainfall 0.29 in
Snow Depth Not available.
UV 3 out of 12
Pollen 5.90 out of 12
Air Quality Not available.
Flu Activity Not available.
METAR KTTN 271853Z 32008KT 10SM FEW035 BKN110 07/M02 A2975 RMK AO2 SLP070 T00671017

More Conditions Fewer Conditions

Pressure 29.74 in
Visibility 10.0 miles
Clouds Few 3500 ft
Mostly Cloudy 11000 ft
Windchill 45 °F
Dew Point 36 °F
Humidity 69%
Rainfall 0.29 in
Snow Depth Not available.
UV 3 out of 12
Pollen 5.90 out of 12
Air Quality Not available.
Flu Activity Not available.
METAR KTTN 271853Z 32008KT 10SM FEW035 BKN110 07/M02 A2975 RMK AO2 SLP070 T00671017

More Conditions Fewer Conditions

10-Day Weather Forecast

Almanac

Astronomy

Mar. 27, 2015 Rise Set
Actual Time
Civil Twilight
Nautical Twilight
Astronomical Twilight
Moon
Length of Visible Light
Length of Day
Tomorrow will be .
, % of the Moon is Illuminated

Today's Extremes

State Highs State Lows

Community

WunderPhotos

Upload Photos

1,808,799 photos uploaded!

WunderBlogs® & News

Nearby

Air Quality

  Air Quality AQ Index Pollutant
Not available.

Snow Depth

Station Depth Elevation

Earthquake Activity

City Distance Mag. Time & Date
Minimum magnitude displayed is 2.5.

Coastal Water Temperatures

Place Temperature

Stations

Nearby Weather Stations

Station Location Temp. Windchill Dew Point Humidity Wind Precip. Elev Updated Type